Portada
METAR-TAF:

METAR-TAF

Aeroports :

David, Panamà

latitud: 08-24N, longitud: 082-25W, altitud: 29 m

Observació

L'informe es va fer fa 3 hores i 43 minuts, a les 01:00 UTC
Vent 1 kt amb direcció variable
Temperatura 27°C
Humitat 94%
Pressió 1009 hPa
Visibilitat 10 km o més
Escasses núvols a una alçada de 1000 ft

METAR: MPDA 010100Z VRB01KT 9999 FEW010 27/26 Q1009

Hora: 23:43 (04:43 UTC)

Pronòstic

L'informe es va fer fa 5 hores i 43 minuts, a les 23:00 UTC
Pronòstic vàlid del 01 a les 00 UTC al 01 a les 12 UTC
Vent 6 kt del Sud-Oest
Visibilitat 10 km o més
Núvols disperses a una alçada de 1800 ft
Núvols disperses a una alçada de 9000 ft
Temporalment
l' 01 a les 05 UTC al 01 a les 07 UTC
Vent kt del Nord

TAF: MPDA 312300Z 0100/0112 23006KT 9999 SCT018 SCT090 TEMPO 0105/0107 00000KT

Observacions i pronòstics meteorològics de més de 4000 aeroports (METAR i TAF).

Les estacions disponibles són els punts grocs i vermells al mapa.

Posi el ratolí al punt desitjat per veure el nom de l'estació.

Feu clic per veure les observacions i els pronòstics meteorològics.

Per canviar el mapa: feu clic els botons verds amb una creu de color negre per apropar; al botó verd amb un guió per allunyar la imatge; o en les fletxes verdes per a mapes adjacents.


METAR-TAF: